Portada
METAR-TAF:

METAR-TAF

Aeropuertos :

Riad, Arabia Saudita

latitud: 24-43N, longitud: 046-44E, altitud: 635 m

Observación

El informe se hizo hace 4 horas y 56 minutos, a las 18:00 UTC
Viento 7 kt del norte
Temperatura 35°C
Humedad 9%
Presión 1011 hPa
Visibilidad 10 km o más
sin nubes por debajo de 1500 m y sin presencia de cumulonimbus.

METAR: OERY 281800Z 01007KT CAVOK 35/M03 Q1011

Hora: 01:56 (22:56 UTC)

Pronóstico

El informe se hizo hace 11 horas y 56 minutos, a las 11:00 UTC
Pronóstico válido del 28 a las 12 UTC al 29 a las 18 UTC
Viento 16 kt del norte-noreste
Visibilidad: 7000 m
Temporalmente
del 28 a las 12 UTC al 28 a las 18 UTC
Visibilidad: 4000 m
Ventisca alta de polvo
Evolucionando progresivamente
del 28 a las 20 UTC al 28 a las 22 UTC
Viento 3 kt con dirección variable

TAF: OERY 281100Z 2812/2918 03016KT 7000 NSC TEMPO 2812/2818 4000 BLDU BECMG 2820/2822 VRB03KT

Observaciones y pronósticos meteorológicos de más de 4000 aeropuertos (mensajes METAR y TAF).

Los puntos amarillos y rojos representan las estaciones disponibles.

Ponga el ratón en el punto deseado para ver el nombre de la estación.

Haga clic para ver las observaciones y los pronósticos meteorológicos.

Para cambiar el mapa : haga clic en los botones verdes con una cruz de color negro para hacer un zoom, en el botón verde con un guión para alejar o en las flechas verdes para mapas adyacentes.


METAR-TAF: